Time;durP1;ratioP1;P1;durP2;ratioP2;P2;SDS_P1;SDS_P2;PMS_P1;PMS_P2;Temp;Humidity;BMP_temperature;BMP_pressure;BME280_temperature;BME280_humidity;BME280_pressure;Samples;Min_cycle;Max_cycle;Signal;HPM_P1;HPM_P2
2023/01/27 00:00:02;;;;;;;18.63;6.65;;;;;;;1.50;77.51;101992.72;4992825;28;20101;-59
2023/01/27 00:02:28;;;;;;;17.77;7.72;;;;;;;1.55;77.27;101999.66;4981215;28;20023;-63
2023/01/27 00:04:53;;;;;;;14.43;6.65;;;;;;;1.54;77.24;101997.91;4993021;28;20084;-61
2023/01/27 00:07:19;;;;;;;17.77;7.55;;;;;;;1.55;77.17;102000.50;4986157;28;20089;-62
2023/01/27 00:09:44;;;;;;;17.80;6.75;;;;;;;1.55;76.97;101994.47;4979971;28;20410;-57
2023/01/27 00:15:13;;;;;;;17.80;7.78;;;;;;;1.56;77.78;101998.78;4988316;28;20040;-58
2023/01/27 00:17:39;;;;;;;18.23;6.88;;;;;;;1.55;77.23;101999.66;4982988;28;20042;-60
2023/01/27 00:20:06;;;;;;;18.58;7.82;;;;;;;1.56;77.27;101994.44;4992363;28;20033;-60
2023/01/27 00:25:16;;;;;;;20.48;7.53;;;;;;;1.59;77.57;101997.03;4993320;28;20118;-60
2023/01/27 00:27:42;;;;;;;17.25;8.07;;;;;;;1.57;77.25;101997.91;4994941;28;20104;-60
2023/01/27 00:30:09;;;;;;;20.10;7.38;;;;;;;1.56;77.68;102003.97;4990346;28;20464;-59
2023/01/27 00:35:18;;;;;;;24.10;7.68;;;;;;;1.62;77.78;101997.06;4990476;28;20123;-56
2023/01/27 00:37:45;;;;;;;20.80;6.90;;;;;;;1.59;77.60;101993.59;4991278;28;20018;-56
2023/01/27 00:40:12;;;;;;;17.42;7.47;;;;;;;1.61;77.57;102002.22;4993217;28;20026;-57
2023/01/27 00:42:37;;;;;;;18.15;6.85;;;;;;;1.63;77.71;102009.16;4987710;28;20035;-60
2023/01/27 00:47:48;;;;;;;17.15;7.60;;;;;;;1.65;77.83;102012.63;4981802;28;20111;-57
2023/01/27 00:50:15;;;;;;;17.55;7.72;;;;;;;1.67;77.66;102010.00;4987624;28;21318;-59
2023/01/27 00:52:41;;;;;;;17.15;7.07;;;;;;;1.64;77.61;102005.69;4991469;28;20414;-57
2023/01/27 00:55:09;;;;;;;18.27;7.20;;;;;;;1.62;77.78;102011.75;4994941;28;20474;-57
2023/01/27 00:57:35;;;;;;;16.95;8.20;;;;;;;1.61;78.21;102010.00;4988730;28;20037;-61
2023/01/27 01:00:01;;;;;;;17.77;7.13;;;;;;;1.60;77.87;102014.34;4993388;28;20026;-61
2023/01/27 01:02:26;;;;;;;16.02;6.15;;;;;;;1.61;77.84;102012.59;4990435;28;20038;-59
2023/01/27 01:04:51;;;;;;;18.00;8.02;;;;;;;1.61;77.84;102016.06;4991819;28;20058;-63
2023/01/27 01:07:17;;;;;;;16.52;6.72;;;;;;;1.61;78.08;102015.19;4989907;28;20030;-57
2023/01/27 01:09:42;;;;;;;14.05;5.68;;;;;;;1.61;77.74;102016.06;4989885;28;20082;-59
2023/01/27 01:12:08;;;;;;;15.27;6.30;;;;;;;1.61;77.83;102010.88;4990268;28;20477;-60
2023/01/27 01:14:33;;;;;;;15.52;6.55;;;;;;;1.59;77.53;102016.94;4984982;28;20041;-59
2023/01/27 01:16:59;;;;;;;17.65;7.10;;;;;;;1.59;77.89;102017.81;4990333;28;20120;-58
2023/01/27 01:19:24;;;;;;;17.25;6.82;;;;;;;1.62;77.89;102019.53;4985240;28;20398;-59
2023/01/27 01:21:50;;;;;;;15.00;6.63;;;;;;;1.63;77.86;102024.72;4991869;28;20034;-62
2023/01/27 01:24:15;;;;;;;16.23;6.68;;;;;;;1.59;78.17;102019.53;4984940;28;20030;-59
2023/01/27 01:26:41;;;;;;;18.63;7.97;;;;;;;1.57;78.07;102014.34;4981827;28;20494;-60
2023/01/27 01:29:06;;;;;;;18.38;7.38;;;;;;;1.60;78.00;102018.66;4991316;28;20486;-63
2023/01/27 01:31:32;;;;;;;19.92;7.72;;;;;;;1.63;78.32;102013.47;4990783;28;20441;-60
2023/01/27 01:33:57;;;;;;;19.45;7.57;;;;;;;1.63;77.93;102018.66;4993293;28;20474;-60
2023/01/27 01:36:23;;;;;;;20.63;7.50;;;;;;;1.62;78.21;102011.75;4992154;28;20049;-59
2023/01/27 01:38:55;;;;;;;18.23;7.47;;;;;;;1.65;78.34;102017.81;4991327;28;20034;-58
2023/01/27 01:41:21;;;;;;;24.75;8.90;;;;;;;1.66;78.60;102018.66;4982966;28;20026;-56
2023/01/27 01:43:48;;;;;;;17.27;7.32;;;;;;;1.66;78.15;102008.28;4984368;28;20042;-59
2023/01/27 01:46:13;;;;;;;19.35;7.65;;;;;;;1.67;78.47;102010.00;4991533;28;20486;-58
2023/01/27 01:48:43;;;;;;;16.77;6.82;;;;;;;1.71;78.45;102019.53;4996034;28;20178;-59
2023/01/27 01:51:16;;;;;;;15.73;7.22;;;;;;;1.75;78.38;102008.28;4994420;28;20089;-62
2023/01/27 01:54:02;;;;;;;20.17;8.20;;;;;;;1.79;78.13;102014.34;4990215;28;20061;-57
2023/01/27 01:56:42;;;;;;;18.45;7.72;;;;;;;1.78;78.06;102008.28;4983678;28;20419;-60
2023/01/27 01:59:44;;;;;;;17.52;8.43;;;;;;;1.77;78.21;102016.06;4998836;28;20032;-60
2023/01/27 02:02:13;;;;;;;13.45;6.63;;;;;;;1.78;78.23;102008.28;4981190;28;20054;-58
2023/01/27 02:04:59;;;;;;;19.45;7.30;;;;;;;1.74;78.17;102001.34;4982743;28;20027;-59
2023/01/27 02:07:52;;;;;;;14.77;5.72;;;;;;;1.68;78.49;102006.56;4985941;28;20497;-62
2023/01/27 02:10:17;;;;;;;13.73;6.15;;;;;;;1.70;78.75;102010.03;4984359;28;20045;-60
2023/01/27 02:12:43;;;;;;;18.23;6.78;;;;;;;1.68;78.65;102006.56;4988455;28;20031;-59
2023/01/27 02:15:09;;;;;;;13.25;5.45;;;;;;;1.66;78.27;102010.88;4985199;28;20030;-60
2023/01/27 02:17:35;;;;;;;13.43;6.00;;;;;;;1.64;78.40;102010.00;4986990;28;20041;-57
2023/01/27 02:20:34;;;;;;;14.10;5.93;;;;;;;1.60;78.69;102013.47;4987866;28;20034;-60
2023/01/27 02:23:31;;;;;;;14.70;5.75;;;;;;;1.59;78.49;102007.41;4990784;28;20029;-57
2023/01/27 02:26:08;;;;;;;13.10;5.30;;;;;;;1.56;78.67;102009.16;4987832;28;20101;-59
2023/01/27 02:28:34;;;;;;;15.55;6.20;;;;;;;1.55;78.86;102010.03;4986008;28;20034;-61
2023/01/27 02:31:00;;;;;;;13.95;5.50;;;;;;;1.55;78.36;102016.06;4989347;28;20033;-56
2023/01/27 02:33:25;;;;;;;12.68;5.45;;;;;;;1.53;78.52;102007.41;4986528;28;20038;-58
2023/01/27 02:36:09;;;;;;;14.70;5.55;;;;;;;1.55;78.71;102010.03;4985624;28;20658;-60
2023/01/27 02:38:42;;;;;;;15.23;5.80;;;;;;;1.52;78.49;102013.47;4989141;28;20117;-56
2023/01/27 02:41:17;;;;;;;16.00;5.55;;;;;;;1.54;78.91;102009.13;4984025;28;20536;-57
2023/01/27 02:43:43;;;;;;;12.27;5.03;;;;;;;1.57;78.45;102008.28;4980146;28;20081;-60
2023/01/27 02:46:08;;;;;;;12.43;6.43;;;;;;;1.54;78.70;102008.28;4988976;28;20494;-55
2023/01/27 02:48:33;;;;;;;16.52;5.85;;;;;;;1.52;78.86;102016.94;4992447;28;20398;-57
2023/01/27 02:50:59;;;;;;;12.18;4.82;;;;;;;1.55;78.95;102026.44;4993309;28;20037;-55
2023/01/27 02:53:24;;;;;;;15.10;5.88;;;;;;;1.58;78.65;102025.59;4989260;28;20691;-58
2023/01/27 02:55:50;;;;;;;11.93;5.03;;;;;;;1.57;78.88;102029.06;4987191;28;20038;-63
2023/01/27 02:58:15;;;;;;;14.43;6.28;;;;;;;1.54;78.73;102022.13;4989020;28;20045;-63
2023/01/27 03:00:43;;;;;;;12.15;5.75;;;;;;;1.54;78.74;102019.50;4992376;28;20033;-56
2023/01/27 03:03:09;;;;;;;11.50;5.22;;;;;;;1.56;79.29;102035.09;4987274;28;20038;-62
2023/01/27 03:05:34;;;;;;;16.58;5.85;;;;;;;1.59;79.04;102028.19;4991460;28;20092;-57
2023/01/27 03:08:00;;;;;;;12.07;4.88;;;;;;;1.65;79.02;102042.88;4991001;28;20474;-61
2023/01/27 03:10:25;;;;;;;13.05;5.68;;;;;;;1.64;78.68;102035.97;4989119;28;20125;-56
2023/01/27 03:12:51;;;;;;;13.38;5.80;;;;;;;1.64;79.05;102029.06;4988760;28;20092;-59
2023/01/27 03:18:18;;;;;;;14.23;5.22;;;;;;;1.63;79.00;102035.09;4985345;28;20493;-58
2023/01/27 03:20:48;;;;;;;13.13;5.70;;;;;;;1.61;78.66;102022.97;4984422;28;20503;-56
2023/01/27 03:23:15;;;;;;;13.77;5.90;;;;;;;1.60;79.18;102029.91;4989081;28;20029;-57
2023/01/27 03:25:43;;;;;;;16.95;6.60;;;;;;;1.61;78.77;102022.97;4989773;28;20087;-56
2023/01/27 03:28:08;;;;;;;11.85;5.47;;;;;;;1.62;79.27;102032.50;4986453;28;20117;-58
2023/01/27 03:30:34;;;;;;;13.40;5.78;;;;;;;1.64;78.81;102030.78;4991787;28;20104;-55
2023/01/27 03:33:02;;;;;;;12.48;5.28;;;;;;;1.65;79.23;102027.31;4983618;28;20045;-57
2023/01/27 03:35:33;;;;;;;11.98;5.13;;;;;;;1.69;79.20;102034.25;4988185;28;20073;-59
2023/01/27 03:46:17;;;;;;;17.33;5.95;;;;;;;1.67;79.36;102030.78;4989041;28;20045;-60
2023/01/27 03:48:48;;;;;;;13.80;5.70;;;;;;;1.68;79.42;102022.97;4984085;28;20109;-62
2023/01/27 03:51:14;;;;;;;14.40;5.53;;;;;;;1.72;79.28;102022.97;4980956;28;20041;-62
2023/01/27 03:53:40;;;;;;;14.50;5.35;;;;;;;1.75;79.01;102026.44;4987641;28;20035;-58
2023/01/27 03:56:06;;;;;;;14.65;5.63;;;;;;;1.75;79.02;102034.22;4984752;28;20033;-61
2023/01/27 03:58:36;;;;;;;17.10;5.78;;;;;;;1.78;79.12;102029.03;4986725;28;20026;-62
2023/01/27 04:01:10;;;;;;;18.00;5.50;;;;;;;1.77;78.89;102032.50;4989378;28;20049;-61
2023/01/27 04:09:11;;;;;;;13.57;5.45;;;;;;;1.67;79.48;102025.59;4979150;28;20049;-62
2023/01/27 04:11:55;;;;;;;21.50;6.07;;;;;;;1.67;79.67;102028.19;4984363;28;20026;-64
2023/01/27 04:14:47;;;;;;;17.27;5.80;;;;;;;1.69;79.73;102026.47;4983223;28;20038;-62
2023/01/27 04:17:17;;;;;;;;;;;;;;;1.65;80.00;102033.38;4988691;28;20053;-61
2023/01/27 04:19:43;;;;;;;14.95;6.63;;;;;;;1.67;80.01;102030.78;4993317;28;19964;-58
2023/01/27 04:22:10;;;;;;;17.08;6.57;;;;;;;1.72;79.86;102029.06;4988385;28;20442;-59
2023/01/27 04:24:36;;;;;;;18.70;6.38;;;;;;;1.73;79.80;102030.78;4987280;28;20026;-62
2023/01/27 04:27:07;;;;;;;22.50;7.07;;;;;;;1.77;79.95;102027.31;4984427;28;20049;-57
2023/01/27 04:29:35;;;;;;;23.67;7.78;;;;;;;1.79;79.62;102032.50;4986163;28;20033;-62
2023/01/27 04:32:03;;;;;;;26.80;8.70;;;;;;;1.78;79.60;102039.41;4992912;28;20022;-61
2023/01/27 04:34:28;;;;;;;21.15;6.05;;;;;;;1.77;80.24;102045.47;4979820;28;20541;-59
2023/01/27 04:36:55;;;;;;;15.70;5.85;;;;;;;1.74;80.26;102040.28;4991999;28;20042;-58
2023/01/27 04:39:21;;;;;;;21.70;7.18;;;;;;;1.75;80.13;102044.59;4987036;28;20029;-61
2023/01/27 04:41:48;;;;;;;30.40;6.85;;;;;;;1.72;80.82;102044.63;4985839;28;20034;-59
2023/01/27 04:44:14;;;;;;;21.25;6.97;;;;;;;1.71;80.94;102036.81;4987604;28;20105;-59
2023/01/27 04:46:40;;;;;;;35.70;7.55;;;;;;;1.74;80.80;102037.69;4986900;28;20085;-62
2023/01/27 04:49:06;;;;;;;21.77;7.30;;;;;;;1.76;80.82;102045.47;4989066;28;20018;-58
2023/01/27 04:51:33;;;;;;;25.73;8.48;;;;;;;1.78;80.97;102048.94;4986562;28;20038;-58
2023/01/27 04:53:59;;;;;;;24.50;6.88;;;;;;;1.76;81.37;102046.34;4990968;28;20030;-57
2023/01/27 04:56:32;;;;;;;31.25;9.18;;;;;;;1.79;80.84;102054.13;4985488;28;20657;-60
2023/01/27 04:59:03;;;;;;;24.13;7.75;;;;;;;1.80;81.16;102053.25;4993056;28;20018;-59
2023/01/27 05:01:29;;;;;;;31.38;10.05;;;;;;;1.83;81.06;102049.78;4990373;28;20056;-61
2023/01/27 05:03:55;;;;;;;21.08;7.43;;;;;;;1.83;81.09;102050.69;4993696;28;20073;-56
2023/01/27 05:06:21;;;;;;;21.17;6.80;;;;;;;1.83;81.65;102058.47;4991229;28;20501;-58
2023/01/27 05:08:47;;;;;;;19.70;5.55;;;;;;;1.82;82.28;102061.03;4986740;28;20018;-58
2023/01/27 05:11:13;;;;;;;29.15;7.07;;;;;;;1.82;81.77;102061.03;4984428;28;20125;-59
2023/01/27 05:13:42;;;;;;;28.45;8.40;;;;;;;1.84;81.86;102069.69;4989827;28;20035;-60
2023/01/27 05:16:19;;;;;;;23.33;7.13;;;;;;;1.87;81.66;102069.69;4981940;28;20035;-59
2023/01/27 05:18:46;;;;;;;25.75;8.10;;;;;;;1.89;81.96;102072.31;4989970;28;20035;-59
2023/01/27 05:21:14;;;;;;;28.02;7.82;;;;;;;1.94;81.87;102078.34;4991344;28;20018;-59
2023/01/27 05:23:40;;;;;;;31.33;9.50;;;;;;;1.95;81.81;102083.56;4986355;28;20031;-58
2023/01/27 05:26:16;;;;;;;25.70;9.18;;;;;;;1.94;82.52;102076.63;4987594;28;20065;-58
2023/01/27 05:28:44;;;;;;;28.23;10.52;;;;;;;2.00;81.87;102078.38;4984124;28;20026;-61
2023/01/27 05:31:17;;;;;;;19.20;6.65;;;;;;;2.01;82.77;102082.69;4989553;28;20548;-58
2023/01/27 05:33:47;;;;;;;19.70;6.30;;;;;;;2.03;82.58;102088.75;4987063;28;20046;-59
2023/01/27 05:36:15;;;;;;;23.25;6.97;;;;;;;2.07;82.25;102089.59;4988885;28;20026;-60
2023/01/27 05:38:41;;;;;;;25.33;8.00;;;;;;;2.09;82.38;102074.91;4984988;28;20401;-62
2023/01/27 05:41:09;;;;;;;20.63;7.70;;;;;;;2.11;82.16;102079.22;4988865;28;20026;-62
2023/01/27 05:43:36;;;;;;;21.23;7.60;;;;;;;2.14;82.42;102080.94;4990452;28;20041;-58
2023/01/27 05:46:06;;;;;;;20.65;7.82;;;;;;;2.16;81.89;102084.41;4988271;28;20096;-56
2023/01/27 05:48:37;;;;;;;23.00;7.47;;;;;;;2.20;81.85;102082.66;4986088;28;20113;-61
2023/01/27 05:51:03;;;;;;;31.65;12.80;;;;;;;2.21;82.62;102084.38;4985674;28;21265;-57
2023/01/27 05:53:28;;;;;;;25.00;10.05;;;;;;;2.24;82.27;102090.47;4988013;28;20065;-60
2023/01/27 05:55:54;;;;;;;20.73;6.20;;;;;;;2.26;82.25;102098.25;4987386;28;20062;-59
2023/01/27 05:58:20;;;;;;;16.90;6.43;;;;;;;2.27;82.42;102094.78;4985309;28;21171;-63
2023/01/27 06:00:46;;;;;;;18.92;5.80;;;;;;;2.30;82.42;102102.56;4979645;28;20026;-60
2023/01/27 06:03:12;;;;;;;12.48;5.88;;;;;;;2.29;82.65;102099.09;4982829;28;20429;-61
2023/01/27 06:05:37;;;;;;;14.25;5.88;;;;;;;2.31;83.12;102106.03;4987339;28;20081;-63
2023/01/27 06:08:03;;;;;;;15.85;6.28;;;;;;;2.33;82.79;102102.56;4987699;28;20081;-58
2023/01/27 06:10:30;;;;;;;16.63;6.45;;;;;;;2.38;82.50;102112.94;4980548;28;20037;-60
2023/01/27 06:12:56;;;;;;;12.30;5.93;;;;;;;2.40;82.98;102116.41;4985943;28;20033;-61
2023/01/27 06:15:22;;;;;;;13.55;5.60;;;;;;;2.43;82.46;102125.06;4992954;28;20038;-58
2023/01/27 06:17:47;;;;;;;12.60;4.90;;;;;;;2.43;83.42;102116.38;4988993;28;20030;-61
2023/01/27 06:20:13;;;;;;;14.10;5.30;;;;;;;2.44;83.33;102108.63;4985755;28;20042;-60
2023/01/27 06:22:39;;;;;;;10.48;4.70;;;;;;;2.45;83.59;102114.66;4967591;28;20060;-60
2023/01/27 06:25:04;;;;;;;11.57;5.40;;;;;;;2.47;83.49;102119.88;4979047;28;20048;-61
2023/01/27 06:27:30;;;;;;;13.02;5.15;;;;;;;2.48;83.53;102112.06;4971950;28;20042;-59
2023/01/27 06:29:55;;;;;;;14.45;6.32;;;;;;;2.48;83.79;102129.41;4986954;28;20065;-58
2023/01/27 06:32:21;;;;;;;22.42;11.20;;;;;;;2.50;83.82;102120.72;4983020;28;20030;-63
2023/01/27 06:34:46;;;;;;;13.77;5.97;;;;;;;2.54;83.47;102118.97;4974036;28;20468;-58
2023/01/27 06:37:12;;;;;;;12.45;5.40;;;;;;;2.53;83.75;102122.44;4971981;28;20062;-59
2023/01/27 06:39:37;;;;;;;10.13;5.43;;;;;;;2.53;83.96;102141.50;4980557;28;20034;-59
2023/01/27 06:42:03;;;;;;;10.75;4.95;;;;;;;2.55;83.54;102137.19;4976345;28;20031;-61
2023/01/27 06:44:29;;;;;;;12.15;5.93;;;;;;;2.58;83.40;102136.31;4981945;28;20042;-62
2023/01/27 06:46:54;;;;;;;12.63;6.18;;;;;;;2.56;84.21;102145.81;4981369;28;20482;-62
2023/01/27 06:49:19;;;;;;;12.80;6.47;;;;;;;2.58;83.69;102144.09;4980509;28;20034;-61
2023/01/27 06:51:45;;;;;;;11.02;5.35;;;;;;;2.62;83.32;102148.44;4978097;28;20022;-60
2023/01/27 06:54:10;;;;;;;14.00;5.50;;;;;;;2.62;83.83;102156.22;4982206;28;20038;-62
2023/01/27 06:56:36;;;;;;;16.63;5.95;;;;;;;2.66;83.52;102150.13;4982626;28;20022;-62
2023/01/27 06:59:01;;;;;;;24.13;10.25;;;;;;;2.68;83.38;102161.41;4987225;28;20176;-62
2023/01/27 07:01:27;;;;;;;19.23;9.82;;;;;;;2.69;83.37;102165.72;4990026;28;20065;-58
2023/01/27 07:03:52;;;;;;;11.15;4.72;;;;;;;2.71;83.16;102166.59;4981103;28;20042;-58
2023/01/27 07:06:19;;;;;;;11.55;5.10;;;;;;;2.71;83.57;102163.16;4991286;28;20030;-60
2023/01/27 07:08:46;;;;;;;12.30;4.22;;;;;;;2.73;83.39;102164.84;4991517;28;20029;-60
2023/01/27 07:11:12;;;;;;;10.10;4.38;;;;;;;2.79;83.18;102165.72;4987730;28;20046;-60
2023/01/27 07:13:38;;;;;;;9.77;3.78;;;;;;;2.78;83.73;102159.66;4990671;28;20118;-59
2023/01/27 07:16:03;;;;;;;14.18;4.90;;;;;;;2.80;83.43;102173.50;4986907;28;20092;-60
2023/01/27 07:18:29;;;;;;;5.80;2.38;;;;;;;2.78;84.15;102177.00;4987833;28;20034;-60
2023/01/27 07:20:54;;;;;;;5.80;2.53;;;;;;;2.78;84.53;102184.78;4989570;28;20235;-62
2023/01/27 07:23:20;;;;;;;6.20;3.40;;;;;;;2.82;83.67;102181.28;4986766;28;20091;-62
2023/01/27 07:25:45;;;;;;;7.90;3.28;;;;;;;2.86;83.63;102191.72;4991106;28;20101;-61
2023/01/27 07:28:11;;;;;;;9.10;3.67;;;;;;;2.88;83.48;102187.34;4988335;28;20038;-62
2023/01/27 07:30:38;;;;;;;3.05;2.13;;;;;;;2.89;83.63;102190.81;4991162;28;20038;-62
2023/01/27 07:33:05;;;;;;;6.18;2.85;;;;;;;2.92;83.67;102193.44;4989640;28;20238;-62
2023/01/27 07:35:30;;;;;;;5.20;2.45;;;;;;;2.91;84.03;102196.88;4989772;28;20390;-61
2023/01/27 07:37:57;;;;;;;13.23;3.30;;;;;;;2.93;84.16;102197.75;4984400;28;20027;-62
2023/01/27 07:40:22;;;;;;;20.70;8.98;;;;;;;2.97;83.77;102196.84;4990292;28;20045;-59
2023/01/27 07:42:48;;;;;;;10.93;2.70;;;;;;;3.00;83.44;102194.25;4990831;28;20034;-62
2023/01/27 07:45:13;;;;;;;5.22;2.70;;;;;;;3.00;84.18;102209.84;4988992;28;20035;-62
2023/01/27 07:47:39;;;;;;;8.70;2.63;;;;;;;3.00;84.18;102207.25;4985445;28;20086;-62
2023/01/27 07:50:05;;;;;;;6.88;2.72;;;;;;;3.07;83.67;102204.66;4991433;28;20528;-62
2023/01/27 07:52:30;;;;;;;6.90;2.90;;;;;;;3.10;83.56;102202.91;4987128;28;20022;-60
2023/01/27 07:54:56;;;;;;;3.80;1.92;;;;;;;3.13;83.40;102199.41;4992120;28;20174;-60
2023/01/27 07:57:21;;;;;;;6.13;2.60;;;;;;;3.17;83.14;102209.84;4991162;28;20034;-57
2023/01/27 07:59:47;;;;;;;5.80;2.58;;;;;;;3.22;82.84;102208.94;4992218;28;20124;-58
2023/01/27 08:02:13;;;;;;;6.80;2.25;;;;;;;3.21;82.94;102210.69;4988151;28;20039;-62
2023/01/27 08:04:38;;;;;;;5.45;2.50;;;;;;;3.24;82.96;102220.19;4986049;28;20035;-57
2023/01/27 08:07:04;;;;;;;4.57;1.85;;;;;;;3.25;82.77;102216.72;4987528;28;20416;-62
2023/01/27 08:09:30;;;;;;;5.75;1.73;;;;;;;3.23;83.10;102227.16;4991063;28;20497;-62
2023/01/27 08:11:55;;;;;;;5.05;2.15;;;;;;;3.24;82.72;102226.28;4993725;28;20038;-60
2023/01/27 08:14:21;;;;;;;10.63;2.33;;;;;;;3.25;82.72;102228.03;4995547;28;20040;-61
2023/01/27 08:16:46;;;;;;;18.65;2.58;;;;;;;3.25;82.45;102217.63;4993504;28;20116;-61
2023/01/27 08:19:12;;;;;;;7.32;2.28;;;;;;;3.25;82.44;102222.81;4995771;28;20042;-59
2023/01/27 08:21:37;;;;;;;5.85;2.10;;;;;;;3.24;82.64;102226.28;4986796;28;20777;-58
2023/01/27 08:24:03;;;;;;;4.50;1.77;;;;;;;3.28;82.32;102224.53;4990436;28;20113;-61
2023/01/27 08:26:28;;;;;;;5.80;2.60;;;;;;;3.29;82.38;102229.72;4985479;28;20470;-59
2023/01/27 08:28:53;;;;;;;4.38;1.58;;;;;;;3.31;82.41;102235.78;5000822;28;20597;-57
2023/01/27 08:31:19;;;;;;;7.18;2.20;;;;;;;3.35;82.35;102232.31;4995824;28;20037;-58
2023/01/27 08:33:50;;;;;;;4.53;2.08;;;;;;;3.36;82.23;102235.75;4997773;28;20109;-62
2023/01/27 08:36:17;;;;;;;6.55;2.10;;;;;;;3.37;82.14;102241.84;4995285;28;20058;-58
2023/01/27 08:38:43;;;;;;;6.65;2.28;;;;;;;3.40;82.04;102242.69;4996059;28;20035;-59
2023/01/27 08:41:16;;;;;;;6.00;1.80;;;;;;;3.36;82.06;102243.56;4988098;28;20108;-60
2023/01/27 08:43:41;;;;;;;;;;;;;;;3.34;81.96;102243.59;4989550;28;20042;-61
2023/01/27 08:46:07;;;;;;;3.58;1.83;;;;;;;3.43;81.92;102237.50;4992759;28;19918;-60
2023/01/27 08:48:34;;;;;;;7.45;2.13;;;;;;;3.48;81.51;102240.06;4994224;28;20045;-61
2023/01/27 08:51:00;;;;;;;3.78;1.95;;;;;;;3.51;81.14;102248.72;4992656;28;20030;-59
2023/01/27 08:53:26;;;;;;;10.65;3.42;;;;;;;3.58;80.88;102241.75;4992390;28;20030;-59
2023/01/27 08:55:54;;;;;;;6.30;1.85;;;;;;;3.66;81.04;102246.91;4994355;28;20038;-59
2023/01/27 08:58:21;;;;;;;4.97;2.40;;;;;;;3.70;80.87;102247.78;4992808;28;20109;-57
2023/01/27 09:00:46;;;;;;;7.28;2.05;;;;;;;3.70;80.65;102247.78;4989054;28;20097;-59
2023/01/27 09:03:12;;;;;;;4.80;2.20;;;;;;;3.70;80.57;102251.25;4993343;28;20423;-61
2023/01/27 09:05:39;;;;;;;8.18;3.03;;;;;;;3.71;80.51;102258.19;4994006;28;20540;-61
2023/01/27 09:08:05;;;;;;;7.40;2.50;;;;;;;3.74;80.53;102252.97;4991719;28;20077;-60
2023/01/27 09:10:30;;;;;;;9.80;2.40;;;;;;;3.81;80.37;102262.47;4991768;28;20022;-61
2023/01/27 09:12:56;;;;;;;9.98;2.58;;;;;;;3.87;80.08;102264.16;4991568;28;20034;-59
2023/01/27 09:15:22;;;;;;;10.05;4.40;;;;;;;3.91;79.45;102259.84;4981140;28;20034;-60
2023/01/27 09:17:47;;;;;;;12.30;4.47;;;;;;;3.91;79.58;102265.91;4995525;28;20490;-60
2023/01/27 09:20:13;;;;;;;6.63;2.65;;;;;;;3.95;79.59;102274.56;4993631;28;20026;-62
2023/01/27 09:22:40;;;;;;;9.90;2.53;;;;;;;3.98;79.24;102274.53;4994833;28;20486;-59
2023/01/27 09:25:13;;;;;;;6.70;2.25;;;;;;;3.98;79.30;102279.75;4995876;28;20022;-61
2023/01/27 09:27:38;;;;;;;8.80;2.05;;;;;;;4.00;79.09;102279.75;4987422;28;20419;-62
2023/01/27 09:30:04;;;;;;;9.57;2.25;;;;;;;4.03;79.28;102285.81;4994665;28;20026;-59
2023/01/27 09:32:30;;;;;;;3.00;1.30;;;;;;;4.03;78.85;102291.03;4994127;28;20034;-60
2023/01/27 09:34:55;;;;;;;6.20;1.80;;;;;;;4.06;78.73;102287.53;4989269;28;20034;-62
2023/01/27 09:37:21;;;;;;;4.70;1.70;;;;;;;4.01;78.04;102281.50;4994307;28;20022;-61
2023/01/27 09:39:52;;;;;;;10.93;4.22;;;;;;;4.03;78.53;102285.81;4993112;28;20029;-59
2023/01/27 09:42:32;;;;;;;7.20;2.13;;;;;;;4.02;78.16;102286.69;4985179;28;20533;-60
2023/01/27 09:45:09;;;;;;;3.33;1.42;;;;;;;4.02;78.32;102283.19;4998539;28;20026;-60
2023/01/27 09:48:13;;;;;;;8.68;2.25;;;;;;;4.00;78.43;102284.97;4983959;28;20037;-60
2023/01/27 09:51:07;;;;;;;7.60;2.22;;;;;;;3.96;78.42;102290.19;4988180;28;20038;-57
2023/01/27 09:54:05;;;;;;;7.53;1.80;;;;;;;3.95;78.55;102293.66;4995421;28;20034;-58
2023/01/27 09:56:44;;;;;;;8.30;2.03;;;;;;;4.02;78.35;102291.88;4980769;28;20089;-59
2023/01/27 09:59:30;;;;;;;5.28;1.73;;;;;;;3.96;77.80;102295.41;4990541;28;20066;-58
2023/01/27 10:02:33;;;;;;;4.15;1.70;;;;;;;3.98;77.76;102303.19;4983717;28;20042;-61
2023/01/27 10:05:12;;;;;;;9.68;1.73;;;;;;;3.95;77.76;102298.88;4982932;28;20023;-61
2023/01/27 10:08:19;;;;;;;11.65;1.98;;;;;;;3.91;77.44;102302.34;4990531;28;20026;-59
2023/01/27 10:10:58;;;;;;;9.63;2.08;;;;;;;3.96;77.81;102305.81;4980918;28;20033;-60
2023/01/27 10:13:40;;;;;;;10.18;2.17;;;;;;;4.00;77.91;102311.88;4989076;28;20030;-58
2023/01/27 10:16:12;;;;;;;14.73;2.20;;;;;;;4.00;78.15;102300.59;4996894;28;20099;-58
2023/01/27 10:18:53;;;;;;;13.70;3.08;;;;;;;3.97;77.97;102302.34;5000203;28;20042;-61
2023/01/27 10:21:30;;;;;;;10.43;2.70;;;;;;;3.99;78.03;102304.06;4993513;28;20069;-55
2023/01/27 10:24:11;;;;;;;4.40;1.90;;;;;;;4.00;77.99;102305.81;4993939;28;20018;-56
2023/01/27 10:26:55;;;;;;;10.95;2.58;;;;;;;4.04;78.03;102307.50;4989552;28;20454;-56
2023/01/27 10:29:24;;;;;;;11.15;2.28;;;;;;;4.02;77.79;102307.53;4986118;28;20022;-57
2023/01/27 10:32:07;;;;;;;12.02;2.45;;;;;;;4.01;77.81;102304.94;4992207;28;20394;-55
2023/01/27 10:34:36;;;;;;;10.70;2.60;;;;;;;4.07;77.77;102304.88;4993641;28;20109;-59
2023/01/27 10:37:38;;;;;;;8.02;2.22;;;;;;;4.06;77.59;102301.44;4996668;28;20034;-58
2023/01/27 10:40:24;;;;;;;8.10;1.80;;;;;;;4.08;77.31;102304.88;4996599;28;20029;-59
2023/01/27 10:43:00;;;;;;;8.82;2.63;;;;;;;4.14;77.43;102306.59;4984881;28;20049;-56
2023/01/27 10:45:36;;;;;;;6.15;2.08;;;;;;;4.23;77.24;102309.13;4985331;28;20033;-57
2023/01/27 10:48:13;;;;;;;8.80;2.47;;;;;;;4.18;76.68;102316.09;4988802;28;20042;-60
2023/01/27 10:50:48;;;;;;;6.82;1.88;;;;;;;4.25;77.12;102310.00;4991717;28;20027;-59
2023/01/27 10:53:31;;;;;;;6.32;1.92;;;;;;;4.18;76.37;102316.09;4989613;28;20040;-61
2023/01/27 10:55:59;;;;;;;7.60;1.92;;;;;;;4.19;76.37;102317.84;5015952;28;20026;-59
2023/01/27 10:58:47;;;;;;;12.65;2.72;;;;;;;4.16;76.16;102310.03;4979873;28;20046;-61
2023/01/27 11:01:18;;;;;;;6.32;2.03;;;;;;;4.30;76.47;102311.72;4982151;28;20076;-60
2023/01/27 11:03:53;;;;;;;6.40;1.92;;;;;;;4.37;75.86;102303.84;4986265;28;20371;-61
2023/01/27 11:06:23;;;;;;;4.32;1.67;;;;;;;4.43;75.58;102308.16;4985988;28;20034;-60
2023/01/27 11:08:54;;;;;;;5.95;2.03;;;;;;;4.46;75.75;102308.13;4992468;28;20029;-60
2023/01/27 11:14:27;;;;;;;6.68;1.90;;;;;;;4.47;75.00;102317.66;4994110;28;20100;-61
2023/01/27 11:17:15;;;;;;;8.20;1.88;;;;;;;4.50;75.26;102312.44;4984896;28;20291;-61
2023/01/27 11:20:04;;;;;;;9.15;1.92;;;;;;;4.54;74.80;102318.47;4989227;28;20038;-61
2023/01/27 11:22:40;;;;;;;10.32;2.13;;;;;;;4.57;75.23;102314.13;4959308;28;20107;-60
2023/01/27 11:25:28;;;;;;;6.50;1.75;;;;;;;4.48;74.30;102329.81;4987535;28;20386;-61
2023/01/27 11:28:26;;;;;;;8.27;1.80;;;;;;;4.47;74.79;102315.06;4988449;28;20045;-61
2023/01/27 11:30:57;;;;;;;4.18;1.40;;;;;;;4.47;74.25;102325.47;4977966;28;20045;-60
2023/01/27 11:33:43;;;;;;;7.65;1.70;;;;;;;4.46;74.04;102328.09;4992683;28;20038;-58
2023/01/27 11:36:08;;;;;;;5.88;2.00;;;;;;;4.44;74.35;102322.91;4986213;28;20026;-58
2023/01/27 11:38:34;;;;;;;10.48;4.20;;;;;;;4.49;74.25;102320.28;4987088;28;20029;-58
2023/01/27 11:40:59;;;;;;;3.03;1.27;;;;;;;4.45;73.64;102322.03;4989346;28;20038;-59
2023/01/27 11:43:26;;;;;;;2.85;1.20;;;;;;;4.42;73.76;102335.09;4989723;28;20506;-60
2023/01/27 11:46:03;;;;;;;3.33;0.80;;;;;;;4.38;73.67;102333.38;4990038;28;20019;-61
2023/01/27 11:48:52;;;;;;;4.80;1.38;;;;;;;4.35;73.47;102333.38;4995113;28;20023;-59
2023/01/27 11:51:20;;;;;;;6.90;1.42;;;;;;;4.41;74.30;102333.34;4996058;28;20030;-60
2023/01/27 11:53:54;;;;;;;4.15;1.17;;;;;;;4.40;73.49;102331.63;4991941;28;20116;-59
2023/01/27 11:56:19;;;;;;;4.53;1.20;;;;;;;4.46;73.19;102342.03;4992829;28;20037;-61
2023/01/27 11:59:24;;;;;;;4.07;1.35;;;;;;;4.48;72.54;102340.25;4997577;28;20030;-58
2023/01/27 12:01:56;;;;;;;5.47;1.70;;;;;;;4.55;72.55;102334.13;4992613;28;20022;-58
2023/01/27 12:04:26;;;;;;;4.70;1.10;;;;;;;4.53;71.81;102328.06;4989982;28;20066;-60
2023/01/27 12:06:58;;;;;;;4.22;1.90;;;;;;;4.55;72.11;102328.03;4989963;28;20041;-57
2023/01/27 12:09:32;;;;;;;6.47;2.40;;;;;;;4.56;72.56;102328.03;4986519;28;20044;-58
2023/01/27 12:12:13;;;;;;;2.42;1.25;;;;;;;4.65;72.54;102323.63;4996409;28;20030;-62